createdAt,value
2023-01-21T00:00:19.090Z,98432.69
2023-01-21T00:02:46.268Z,98433.75
2023-01-21T00:05:12.471Z,98434.56
2023-01-21T00:07:38.654Z,98426.81
2023-01-21T00:10:04.897Z,98437.03
2023-01-21T00:12:31.761Z,98435.75
2023-01-21T00:14:58.199Z,98440.03
2023-01-21T00:17:24.641Z,98440.38
2023-01-21T00:19:51.463Z,98447.63
2023-01-21T00:22:17.867Z,98462.88
2023-01-21T00:24:44.060Z,98461.13
2023-01-21T00:27:10.263Z,98479.00
2023-01-21T00:29:36.475Z,98473.16
2023-01-21T00:32:02.717Z,98476.91
2023-01-21T00:34:28.933Z,98478.81
2023-01-21T00:36:56.544Z,98481.56
2023-01-21T00:39:23.846Z,98489.50
2023-01-21T00:41:50.069Z,98489.75
2023-01-21T00:44:16.406Z,98485.50
2023-01-21T00:46:42.776Z,98493.72
2023-01-21T00:49:09.016Z,98505.16
2023-01-21T00:51:37.279Z,98497.19
2023-01-21T00:54:04.009Z,98496.19
2023-01-21T00:56:30.308Z,98503.09
2023-01-21T00:58:56.523Z,98501.09
2023-01-21T01:01:22.877Z,98504.50
2023-01-21T01:03:49.225Z,98508.56
2023-01-21T01:06:15.467Z,98512.59
2023-01-21T01:08:42.374Z,98515.81
2023-01-21T01:11:08.626Z,98522.50
2023-01-21T01:13:34.899Z,98531.63
2023-01-21T01:16:01.236Z,98535.69
2023-01-21T01:18:27.623Z,98536.03
2023-01-21T01:20:53.874Z,98537.22
2023-01-21T01:23:20.073Z,98545.53
2023-01-21T01:25:46.590Z,98545.84
2023-01-21T01:28:12.848Z,98551.31
2023-01-21T01:30:39.922Z,98555.72
2023-01-21T01:33:06.119Z,98549.56
2023-01-21T01:35:32.312Z,98551.34
2023-01-21T01:37:58.497Z,98553.25
2023-01-21T01:40:24.716Z,98572.75
2023-01-21T01:42:52.486Z,98571.06
2023-01-21T01:45:18.726Z,98575.66
2023-01-21T01:47:45.034Z,98567.88
2023-01-21T01:50:11.424Z,98574.94
2023-01-21T01:52:37.723Z,98579.97
2023-01-21T01:55:04.091Z,98578.25
2023-01-21T01:57:30.453Z,98582.66
2023-01-21T01:59:56.934Z,98581.56
2023-01-21T02:02:23.527Z,98584.97
2023-01-21T02:04:50.147Z,98589.34
2023-01-21T02:07:17.211Z,98596.00
2023-01-21T02:09:43.731Z,98591.47
2023-01-21T02:12:10.289Z,98595.03
2023-01-21T02:14:36.437Z,98598.41
2023-01-21T02:17:02.675Z,98610.53
2023-01-21T02:19:28.920Z,98597.38
2023-01-21T02:21:57.265Z,98606.06
2023-01-21T02:24:23.534Z,98603.13
2023-01-21T02:26:49.782Z,98602.84
2023-01-21T02:29:16.683Z,98610.69
2023-01-21T02:31:42.979Z,98612.22
2023-01-21T02:34:09.268Z,98614.59
2023-01-21T02:36:35.514Z,98612.69
2023-01-21T02:39:02.029Z,98614.22
2023-01-21T02:41:28.268Z,98622.84
2023-01-21T02:43:54.719Z,98626.03
2023-01-21T02:46:21.261Z,98621.47
2023-01-21T02:48:47.494Z,98622.19
2023-01-21T02:51:13.769Z,98632.47
2023-01-21T02:53:39.985Z,98633.81
2023-01-21T02:56:06.206Z,98634.50
2023-01-21T02:58:32.400Z,98642.13
2023-01-21T03:00:58.675Z,98644.66
2023-01-21T03:03:25.473Z,98644.38
2023-01-21T03:05:52.134Z,98644.91
2023-01-21T03:08:18.968Z,98649.06
2023-01-21T03:10:45.256Z,98652.19
2023-01-21T03:13:11.436Z,98644.00
2023-01-21T03:15:37.932Z,98646.16
2023-01-21T03:18:04.718Z,98645.88
2023-01-21T03:20:31.476Z,98654.13
2023-01-21T03:22:57.664Z,98654.63
2023-01-21T03:25:24.152Z,98653.38
2023-01-21T03:27:50.467Z,98652.06
2023-01-21T03:30:17.060Z,98659.66
2023-01-21T03:32:43.513Z,98655.72
2023-01-21T03:35:10.247Z,98654.38
2023-01-21T03:37:36.435Z,98662.63
2023-01-21T03:40:02.731Z,98663.00
2023-01-21T03:42:29.379Z,98663.34
2023-01-21T03:44:55.982Z,98661.19
2023-01-21T03:47:22.171Z,98665.97
2023-01-21T03:49:48.529Z,98667.34
2023-01-21T03:52:14.760Z,98671.13
2023-01-21T03:54:41.227Z,98667.00
2023-01-21T03:57:07.467Z,98671.66
2023-01-21T03:59:33.733Z,98680.69
2023-01-21T04:02:00.006Z,98676.75
2023-01-21T04:04:26.227Z,98674.47
2023-01-21T04:06:53.282Z,98679.06
2023-01-21T04:09:19.511Z,98680.25
2023-01-21T04:11:45.704Z,98674.31
2023-01-21T04:14:12.867Z,98676.28
2023-01-21T04:16:40.013Z,98677.44
2023-01-21T04:19:06.289Z,98683.88
2023-01-21T04:21:32.506Z,98680.59
2023-01-21T04:23:59.429Z,98676.47
2023-01-21T04:26:25.667Z,98687.16
2023-01-21T04:28:51.936Z,98683.06
2023-01-21T04:31:18.488Z,98691.13
2023-01-21T04:33:44.760Z,98684.41
2023-01-21T04:36:11.029Z,98690.00
2023-01-21T04:38:37.456Z,98684.91
2023-01-21T04:41:03.711Z,98688.69
2023-01-21T04:43:30.332Z,98683.59
2023-01-21T04:45:56.650Z,98681.13
2023-01-21T04:48:22.885Z,98681.31
2023-01-21T04:50:49.274Z,98692.78
2023-01-21T04:53:15.522Z,98681.63
2023-01-21T04:55:41.755Z,98698.22
2023-01-21T04:58:08.476Z,98699.41
2023-01-21T05:00:35.699Z,98696.09
2023-01-21T05:03:01.898Z,98693.66
2023-01-21T05:05:28.111Z,98701.66
2023-01-21T05:07:54.508Z,98701.03
2023-01-21T05:10:21.596Z,98696.75
2023-01-21T05:12:47.843Z,98697.09
2023-01-21T05:15:14.071Z,98713.69
2023-01-21T05:17:40.369Z,98700.69
2023-01-21T05:20:06.565Z,98707.13
2023-01-21T05:22:32.780Z,98708.91
2023-01-21T05:24:59.368Z,98690.03
2023-01-21T05:27:26.052Z,98713.50
2023-01-21T05:29:52.263Z,98701.38
2023-01-21T05:32:18.504Z,98702.38
2023-01-21T05:34:44.719Z,98711.22
2023-01-21T05:37:10.938Z,98717.47
2023-01-21T05:39:37.162Z,98716.47
2023-01-21T05:42:03.437Z,98710.56
2023-01-21T05:44:29.769Z,98718.44
2023-01-21T05:46:56.182Z,98717.66
2023-01-21T05:49:22.504Z,98724.69
2023-01-21T05:51:49.280Z,98729.13
2023-01-21T05:54:15.529Z,98726.66
2023-01-21T05:56:41.832Z,98710.75
2023-01-21T05:59:08.441Z,98721.41
2023-01-21T06:01:34.872Z,98733.56
2023-01-21T06:04:01.469Z,98730.28
2023-01-21T06:06:28.578Z,98739.81
2023-01-21T06:08:54.775Z,98743.44
2023-01-21T06:11:21.003Z,98747.88
2023-01-21T06:13:47.232Z,98750.66
2023-01-21T06:16:13.537Z,98755.09
2023-01-21T06:18:40.293Z,98762.16
2023-01-21T06:21:06.505Z,98761.34
2023-01-21T06:23:33.465Z,98760.50
2023-01-21T06:25:59.792Z,98765.75
2023-01-21T06:28:26.138Z,98769.38
2023-01-21T06:30:52.402Z,98773.00
2023-01-21T06:33:19.459Z,98773.00
2023-01-21T06:35:46.019Z,98775.78
2023-01-21T06:38:13.474Z,98787.13
2023-01-21T06:40:39.791Z,98784.63
2023-01-21T06:43:05.972Z,98787.44
2023-01-21T06:45:32.828Z,98797.94
2023-01-21T06:47:59.064Z,98800.56
2023-01-21T06:50:25.362Z,98789.38
2023-01-21T06:52:51.563Z,98793.03
2023-01-21T06:55:17.834Z,98795.66
2023-01-21T06:57:44.044Z,98797.44
2023-01-21T07:00:10.479Z,98803.69
2023-01-21T07:02:36.759Z,98806.31
2023-01-21T07:05:03.411Z,98805.50
2023-01-21T07:07:32.694Z,98807.28
2023-01-21T07:09:58.933Z,98807.28
2023-01-21T07:12:25.151Z,98810.09
2023-01-21T07:14:51.432Z,98810.25
2023-01-21T07:17:18.479Z,98808.44
2023-01-21T07:19:44.764Z,98813.69
2023-01-21T07:22:11.074Z,98813.38
2023-01-21T07:24:37.400Z,98824.25
2023-01-21T07:27:04.496Z,98821.81
2023-01-21T07:29:31.197Z,98824.53
2023-01-21T07:31:57.527Z,98812.72
2023-01-21T07:34:23.750Z,98810.13
2023-01-21T07:36:49.988Z,98812.63
2023-01-21T07:39:16.230Z,98803.94
2023-01-21T07:41:42.532Z,98810.59
2023-01-21T07:44:09.520Z,98806.41
2023-01-21T07:46:35.745Z,98819.25
2023-01-21T07:49:01.992Z,98812.53
2023-01-21T07:51:28.260Z,98824.09
2023-01-21T07:53:54.515Z,98819.06
2023-01-21T07:56:21.017Z,98827.63
2023-01-21T07:58:47.219Z,98834.56
2023-01-21T08:01:14.402Z,98821.69
2023-01-21T08:03:40.788Z,98827.06
2023-01-21T08:06:07.074Z,98826.75
2023-01-21T08:08:33.272Z,98831.69
2023-01-21T08:10:59.532Z,98831.78
2023-01-21T08:13:26.075Z,98821.28
2023-01-21T08:15:52.387Z,98834.81
2023-01-21T08:18:19.406Z,98837.72
2023-01-21T08:20:45.581Z,98840.06
2023-01-21T08:23:11.853Z,98848.88
2023-01-21T08:25:38.036Z,98845.47
2023-01-21T08:28:04.237Z,98847.53
2023-01-21T08:30:30.442Z,98851.66
2023-01-21T08:32:56.625Z,98858.63
2023-01-21T08:35:22.835Z,98857.03
2023-01-21T08:37:49.304Z,98859.75
2023-01-21T08:40:15.690Z,98860.78
2023-01-21T08:42:42.017Z,98868.94
2023-01-21T08:45:08.535Z,98874.69
2023-01-21T08:47:34.790Z,98873.44
2023-01-21T08:50:01.560Z,98874.47
2023-01-21T08:52:27.817Z,98879.38
2023-01-21T08:54:54.149Z,98888.38
2023-01-21T08:57:20.411Z,98888.16
2023-01-21T08:59:46.647Z,98893.31
2023-01-21T09:02:13.075Z,98897.19
2023-01-21T09:04:39.317Z,98903.50
2023-01-21T09:07:06.399Z,98896.50
2023-01-21T09:09:32.685Z,98921.06
2023-01-21T09:12:02.190Z,98911.22
2023-01-21T09:14:28.395Z,98926.16
2023-01-21T09:16:54.663Z,98922.25
2023-01-21T09:19:21.852Z,98918.72
2023-01-21T09:21:48.072Z,98919.72
2023-01-21T09:24:15.047Z,98920.13
2023-01-21T09:26:41.301Z,98920.09
2023-01-21T09:29:07.945Z,98919.91
2023-01-21T09:31:34.258Z,98918.88
2023-01-21T09:34:00.595Z,98915.78
2023-01-21T09:36:26.816Z,98927.22
2023-01-21T09:38:53.077Z,98932.72
2023-01-21T09:41:19.309Z,98931.50
2023-01-21T09:43:46.365Z,98933.72
2023-01-21T09:46:12.631Z,98929.84
2023-01-21T09:48:38.877Z,98929.84
2023-01-21T09:51:05.140Z,98932.91
2023-01-21T09:53:31.433Z,98923.28
2023-01-21T09:55:57.821Z,98920.63
2023-01-21T09:58:24.322Z,98934.59
2023-01-21T10:00:51.609Z,98931.28
2023-01-21T10:03:17.878Z,98931.03
2023-01-21T10:05:44.549Z,98933.66
2023-01-21T10:08:11.548Z,98937.09
2023-01-21T10:10:38.113Z,98934.56
2023-01-21T10:13:04.457Z,98935.28
2023-01-21T10:15:31.539Z,98930.31
2023-01-21T10:17:57.988Z,98941.31
2023-01-21T10:20:24.983Z,98939.19
2023-01-21T10:22:51.191Z,98938.31
2023-01-21T10:25:17.722Z,98938.72
2023-01-21T10:27:44.223Z,98938.91
2023-01-21T10:30:10.894Z,98933.25
2023-01-21T10:32:37.125Z,98928.22
2023-01-21T10:35:03.519Z,98935.16
2023-01-21T10:37:30.065Z,98937.59
2023-01-21T10:39:56.302Z,98936.72
2023-01-21T10:42:22.972Z,98937.03
2023-01-21T10:44:49.412Z,98941.47
2023-01-21T10:47:16.107Z,98942.28
2023-01-21T10:49:42.445Z,98942.91
2023-01-21T10:52:08.655Z,98940.16
2023-01-21T10:54:34.899Z,98937.63
2023-01-21T10:57:01.184Z,98935.91
2023-01-21T10:59:27.418Z,98935.47
2023-01-21T11:01:53.746Z,98933.75
2023-01-21T11:04:20.118Z,98937.41
2023-01-21T11:06:46.328Z,98934.25
2023-01-21T11:09:12.641Z,98931.41
2023-01-21T11:11:39.313Z,98929.91
2023-01-21T11:14:06.014Z,98935.63
2023-01-21T11:16:32.324Z,98937.66
2023-01-21T11:18:59.424Z,98933.47
2023-01-21T11:21:25.702Z,98937.56
2023-01-21T11:23:52.004Z,98937.69
2023-01-21T11:26:18.241Z,98927.97
2023-01-21T11:28:44.480Z,98932.63
2023-01-21T11:31:11.408Z,98926.00
2023-01-21T11:33:37.670Z,98931.59
2023-01-21T11:36:03.886Z,98932.84
2023-01-21T11:38:30.180Z,98928.78
2023-01-21T11:40:56.501Z,98919.34
2023-01-21T11:43:25.017Z,98923.88
2023-01-21T11:45:51.241Z,98924.69
2023-01-21T11:48:17.517Z,98930.41
2023-01-21T11:50:43.849Z,98926.25
2023-01-21T11:53:10.057Z,98922.88
2023-01-21T11:55:36.454Z,98914.97
2023-01-21T11:58:02.655Z,98920.22
2023-01-21T12:00:28.855Z,98922.81
2023-01-21T12:02:55.280Z,98926.88
2023-01-21T12:05:21.582Z,98919.22
2023-01-21T12:07:49.745Z,98912.47
2023-01-21T12:10:16.277Z,98913.16
2023-01-21T12:12:43.428Z,98915.69
2023-01-21T12:15:09.801Z,98919.06
2023-01-21T12:17:38.432Z,98913.00
2023-01-21T12:20:06.118Z,98917.75
2023-01-21T12:22:32.365Z,98916.13
2023-01-21T12:24:58.637Z,98910.78
2023-01-21T12:27:24.935Z,98915.09
2023-01-21T12:29:51.832Z,98917.06
2023-01-21T12:32:18.038Z,98916.41
2023-01-21T12:34:44.484Z,98922.69
2023-01-21T12:37:10.700Z,98927.94
2023-01-21T12:39:36.889Z,98917.97
2023-01-21T12:42:03.962Z,98920.16
2023-01-21T12:44:30.173Z,98918.31
2023-01-21T12:46:56.579Z,98914.47
2023-01-21T12:49:23.100Z,98913.06
2023-01-21T12:51:49.335Z,98914.94
2023-01-21T12:54:16.566Z,98914.94
2023-01-21T12:56:43.056Z,98913.88
2023-01-21T12:59:09.321Z,98914.22
2023-01-21T13:01:35.690Z,98916.22
2023-01-21T13:04:01.959Z,98911.00
2023-01-21T13:06:37.973Z,98908.22
2023-01-21T13:09:13.149Z,98908.13
2023-01-21T13:11:39.421Z,98910.72
2023-01-21T13:14:05.622Z,98912.94
2023-01-21T13:16:31.872Z,98913.28
2023-01-21T13:18:58.776Z,98913.88
2023-01-21T13:21:27.550Z,98912.81
2023-01-21T13:23:54.802Z,98906.88
2023-01-21T13:26:21.064Z,98915.97
2023-01-21T13:28:47.457Z,98915.38
2023-01-21T13:31:13.803Z,98909.06
2023-01-21T13:33:40.078Z,98918.06
2023-01-21T13:36:06.296Z,98912.31
2023-01-21T13:38:32.490Z,98909.63
2023-01-21T13:40:59.439Z,98919.28
2023-01-21T13:43:25.655Z,98902.03
2023-01-21T13:45:52.159Z,98905.56
2023-01-21T13:48:18.391Z,98911.53
2023-01-21T13:50:44.704Z,98905.13
2023-01-21T13:53:10.945Z,98917.94
2023-01-21T13:55:37.222Z,98908.72
2023-01-21T13:58:03.431Z,98907.50
2023-01-21T14:00:30.613Z,98911.94
2023-01-21T14:02:57.431Z,98914.72
2023-01-21T14:05:23.950Z,98909.22
2023-01-21T14:07:50.327Z,98899.59
2023-01-21T14:10:17.046Z,98909.22
2023-01-21T14:12:45.568Z,98909.00
2023-01-21T14:15:16.629Z,98903.41
2023-01-21T14:17:56.572Z,98915.31
2023-01-21T14:20:23.557Z,98904.94
2023-01-21T14:22:50.605Z,98906.94
2023-01-21T14:25:16.839Z,98908.72
2023-01-21T14:27:43.191Z,98910.50
2023-01-21T14:30:09.424Z,98906.88
2023-01-21T14:32:35.663Z,98902.22
2023-01-21T14:35:02.449Z,98905.59
2023-01-21T14:37:28.703Z,98899.31
2023-01-21T14:39:55.009Z,98898.25
2023-01-21T14:42:21.247Z,98898.84
2023-01-21T14:44:47.483Z,98903.72
2023-01-21T14:47:13.724Z,98903.84
2023-01-21T14:49:39.934Z,98887.66
2023-01-21T14:52:06.952Z,98901.50
2023-01-21T14:54:33.182Z,98892.22
2023-01-21T14:57:04.296Z,98902.22
2023-01-21T14:59:36.396Z,98891.84
2023-01-21T15:02:02.646Z,98897.78
2023-01-21T15:04:29.038Z,98896.25
2023-01-21T15:06:55.304Z,98898.47
2023-01-21T15:09:21.497Z,98891.50
2023-01-21T15:11:48.555Z,98895.22
2023-01-21T15:14:14.750Z,98892.06
2023-01-21T15:16:41.058Z,98890.53
2023-01-21T15:19:07.993Z,98892.97
2023-01-21T15:21:35.028Z,98887.63
2023-01-21T15:24:01.286Z,98887.84
2023-01-21T15:26:27.486Z,98882.00
2023-01-21T15:28:53.770Z,98887.97
2023-01-21T15:31:20.142Z,98881.81
2023-01-21T15:33:46.445Z,98879.13
2023-01-21T15:36:12.743Z,98875.63
2023-01-21T15:38:39.062Z,98873.97
2023-01-21T15:41:06.165Z,98870.03
2023-01-21T15:43:32.385Z,98869.78
2023-01-21T15:45:58.697Z,98868.28
2023-01-21T15:48:36.491Z,98870.50
2023-01-21T15:51:08.145Z,98877.00
2023-01-21T15:53:34.522Z,98867.66
2023-01-21T15:56:00.713Z,98866.88
2023-01-21T15:58:27.021Z,98866.28
2023-01-21T16:00:53.281Z,98878.19
2023-01-21T16:03:19.568Z,98877.00
2023-01-21T16:05:46.450Z,98868.63
2023-01-21T16:08:12.683Z,98867.25
2023-01-21T16:10:38.936Z,98865.38
2023-01-21T16:13:05.522Z,98867.59
2023-01-21T16:15:31.772Z,98867.09
2023-01-21T16:17:59.187Z,98868.53
2023-01-21T16:20:25.382Z,98868.28
2023-01-21T16:22:51.608Z,98872.34
2023-01-21T16:25:18.181Z,98880.72
2023-01-21T16:27:45.604Z,98868.16
2023-01-21T16:30:11.876Z,98865.47
2023-01-21T16:32:38.970Z,98865.22
2023-01-21T16:35:05.235Z,98873.63
2023-01-21T16:37:31.432Z,98871.50
2023-01-21T16:39:57.638Z,98865.34
2023-01-21T16:42:23.961Z,98870.69
2023-01-21T16:44:50.343Z,98856.84
2023-01-21T16:47:17.463Z,98861.72
2023-01-21T16:49:43.654Z,98861.72
2023-01-21T16:52:09.872Z,98863.31
2023-01-21T16:54:36.144Z,98863.31
2023-01-21T16:57:04.049Z,98864.47
2023-01-21T16:59:31.065Z,98862.38
2023-01-21T17:01:57.390Z,98864.00
2023-01-21T17:04:24.550Z,98863.22
2023-01-21T17:06:50.799Z,98864.47
2023-01-21T17:09:17.377Z,98859.03
2023-01-21T17:11:43.768Z,98858.09
2023-01-21T17:14:10.462Z,98860.94
2023-01-21T17:16:36.668Z,98853.84
2023-01-21T17:19:04.044Z,98852.31
2023-01-21T17:21:30.244Z,98858.28
2023-01-21T17:23:56.625Z,98857.13
2023-01-21T17:26:23.511Z,98865.63
2023-01-21T17:28:50.081Z,98860.50
2023-01-21T17:31:16.400Z,98858.31
2023-01-21T17:33:42.960Z,98856.09
2023-01-21T17:36:09.343Z,98862.25
2023-01-21T17:38:35.523Z,98867.88
2023-01-21T17:41:01.805Z,98865.53
2023-01-21T17:43:28.933Z,98862.38
2023-01-21T17:45:55.413Z,98847.69
2023-01-21T17:48:21.773Z,98851.31
2023-01-21T17:50:48.121Z,98849.53
2023-01-21T17:53:14.316Z,98847.19
2023-01-21T17:55:40.541Z,98850.03
2023-01-21T17:58:07.523Z,98849.06
2023-01-21T18:00:33.774Z,98844.84
2023-01-21T18:03:00.232Z,98847.53
2023-01-21T18:05:26.534Z,98849.97
2023-01-21T18:07:52.733Z,98848.44
2023-01-21T18:10:19.019Z,98846.66
2023-01-21T18:12:45.262Z,98851.31
2023-01-21T18:15:11.822Z,98861.81
2023-01-21T18:17:38.658Z,98840.69
2023-01-21T18:20:04.931Z,98838.34
2023-01-21T18:22:31.165Z,98838.34
2023-01-21T18:24:57.627Z,98832.97
2023-01-21T18:27:26.035Z,98825.19
2023-01-21T18:29:52.506Z,98832.66
2023-01-21T18:32:18.707Z,98831.50
2023-01-21T18:34:57.291Z,98841.88
2023-01-21T18:37:25.681Z,98830.88
2023-01-21T18:39:51.896Z,98818.19
2023-01-21T18:42:24.322Z,98837.31
2023-01-21T18:44:51.462Z,98847.22
2023-01-21T18:47:17.694Z,98838.16
2023-01-21T18:49:43.900Z,98815.56
2023-01-21T18:52:10.229Z,98819.50
2023-01-21T18:54:36.656Z,98804.22
2023-01-21T18:57:03.358Z,98803.41
2023-01-21T18:59:29.566Z,98789.44
2023-01-21T19:01:55.895Z,98789.78
2023-01-21T19:04:22.212Z,98791.50
2023-01-21T19:06:48.412Z,98794.88
2023-01-21T19:09:15.538Z,98797.66
2023-01-21T19:11:41.715Z,98797.19
2023-01-21T19:14:07.909Z,98788.66
2023-01-21T19:16:34.242Z,98795.19
2023-01-21T19:19:00.502Z,98808.09
2023-01-21T19:21:26.872Z,98797.38
2023-01-21T19:23:53.073Z,98801.91
2023-01-21T19:26:19.268Z,98792.50
2023-01-21T19:28:45.671Z,98799.63
2023-01-21T19:31:11.963Z,98786.91
2023-01-21T19:33:38.259Z,98794.88
2023-01-21T19:36:04.880Z,98796.19
2023-01-21T19:38:31.103Z,98802.78
2023-01-21T19:40:57.313Z,98808.16
2023-01-21T19:43:23.949Z,98801.53
2023-01-21T19:45:50.155Z,98797.56
2023-01-21T19:48:16.397Z,98792.06
2023-01-21T19:50:43.176Z,98782.03
2023-01-21T19:53:09.408Z,98789.09
2023-01-21T19:55:35.685Z,98772.25
2023-01-21T19:58:01.923Z,98761.31
2023-01-21T20:00:31.129Z,98769.13
2023-01-21T20:02:57.352Z,98771.31
2023-01-21T20:05:23.749Z,98775.16
2023-01-21T20:07:49.925Z,98774.31
2023-01-21T20:10:16.870Z,98777.81
2023-01-21T20:12:44.332Z,98781.88
2023-01-21T20:15:10.691Z,98781.41
2023-01-21T20:17:36.896Z,98784.09
2023-01-21T20:20:03.331Z,98771.72
2023-01-21T20:22:29.995Z,98769.78
2023-01-21T20:24:56.351Z,98781.47
2023-01-21T20:27:22.689Z,98771.72
2023-01-21T20:30:02.787Z,98774.84
2023-01-21T20:32:35.226Z,98781.19
2023-01-21T20:35:01.588Z,98775.25
2023-01-21T20:37:27.784Z,98775.00
2023-01-21T20:39:54.012Z,98779.00
2023-01-21T20:42:20.235Z,98770.63
2023-01-21T20:44:46.460Z,98768.41
2023-01-21T20:47:12.668Z,98760.41
2023-01-21T20:49:38.887Z,98771.47
2023-01-21T20:52:05.073Z,98773.78
2023-01-21T20:54:31.263Z,98771.81
2023-01-21T20:56:57.448Z,98774.19
2023-01-21T20:59:23.702Z,98768.69
2023-01-21T21:01:49.923Z,98767.56
2023-01-21T21:04:16.479Z,98765.34
2023-01-21T21:06:42.773Z,98767.47
2023-01-21T21:09:09.121Z,98766.41
2023-01-21T21:11:35.434Z,98771.53
2023-01-21T21:14:01.740Z,98768.03
2023-01-21T21:16:28.090Z,98757.22
2023-01-21T21:18:54.301Z,98771.22
2023-01-21T21:21:23.510Z,98770.22
2023-01-21T21:23:49.983Z,98770.69
2023-01-21T21:26:16.179Z,98769.06
2023-01-21T21:28:42.389Z,98777.91
2023-01-21T21:31:08.994Z,98770.69
2023-01-21T21:33:35.305Z,98774.75
2023-01-21T21:36:01.560Z,98774.88
2023-01-21T21:38:27.758Z,98771.25
2023-01-21T21:40:53.973Z,98772.66
2023-01-21T21:43:20.300Z,98774.06
2023-01-21T21:45:46.560Z,98777.88
2023-01-21T21:48:12.815Z,98775.50
2023-01-21T21:50:39.244Z,98774.78
2023-01-21T21:53:05.482Z,98777.81
2023-01-21T21:55:31.707Z,98770.88
2023-01-21T21:57:58.171Z,98767.50
2023-01-21T22:00:24.364Z,98774.22
2023-01-21T22:02:50.553Z,98775.13
2023-01-21T22:05:17.089Z,98780.31
2023-01-21T22:07:43.595Z,98765.19
2023-01-21T22:10:09.821Z,98773.06
2023-01-21T22:12:36.049Z,98774.56
2023-01-21T22:15:02.230Z,98778.97
2023-01-21T22:17:28.416Z,98776.94
2023-01-21T22:19:54.648Z,98778.69
2023-01-21T22:22:20.826Z,98770.31
2023-01-21T22:24:47.129Z,98775.47
2023-01-21T22:27:13.321Z,98780.66
2023-01-21T22:29:39.526Z,98785.63
2023-01-21T22:32:05.768Z,98775.88
2023-01-21T22:34:31.953Z,98782.56
2023-01-21T22:36:58.399Z,98779.88
2023-01-21T22:39:24.608Z,98786.00
2023-01-21T22:41:50.853Z,98788.41
2023-01-21T22:44:17.076Z,98794.06
2023-01-21T22:46:43.288Z,98788.84
2023-01-21T22:49:09.524Z,98787.03
2023-01-21T22:51:35.924Z,98786.31
2023-01-21T22:54:02.199Z,98783.28
2023-01-21T22:56:49.717Z,98789.31
2023-01-21T22:59:14.640Z,98781.78
2023-01-21T23:01:41.015Z,98777.94
2023-01-21T23:04:07.331Z,98786.38
2023-01-21T23:06:33.908Z,98791.31
2023-01-21T23:09:00.658Z,98783.59
2023-01-21T23:11:26.857Z,98794.44
2023-01-21T23:13:53.104Z,98784.00
2023-01-21T23:16:19.441Z,98781.59
2023-01-21T23:18:45.675Z,98780.78
2023-01-21T23:21:11.946Z,98791.63
2023-01-21T23:23:38.304Z,98789.81
2023-01-21T23:26:04.757Z,98792.69
2023-01-21T23:28:30.969Z,98787.56
2023-01-21T23:30:57.265Z,98786.75
2023-01-21T23:33:23.709Z,98782.28
2023-01-21T23:35:50.027Z,98775.31
2023-01-21T23:38:16.227Z,98767.75
2023-01-21T23:40:42.619Z,98787.81
2023-01-21T23:43:08.823Z,98782.47
2023-01-21T23:45:35.079Z,98790.44
2023-01-21T23:48:01.323Z,98782.22
2023-01-21T23:50:27.734Z,98780.19
2023-01-21T23:52:54.017Z,98779.16
2023-01-21T23:55:20.352Z,98777.31
2023-01-21T23:57:46.720Z,98780.78
